Danbury, IA (51019)

3:20 AM CDT on May 25, 2015 (GMT -0500)
The Danbury Review | | Change Station
CLOSE
Current Station
Personal Weather Station
Location: Danbury, IA
Elevation: 1162 ft
Nearby Weather Stations

Elev 1162 ft 42.24 °N, 95.72 °W | Updated 2 seconds ago

Overcast
Overcast
60.9 °F
Feels Like 60.9 °F
N
0.0
Wind Variable Wind from SW
Gusts 4.0 mph

Today
High -- | Low -- °F
--% Chance of Precip.
Yesterday
High -- | Low -- °F
Precip. -- in
5:53 AM 8:46 PM
Waxing Crescent, 46% visible
Pressure 29.73 in
Visibility 6.0 miles
Clouds Scattered Clouds 4300 ft
Mostly Cloudy 6500 ft
Overcast 10000 ft
Dew Point 59 °F
Humidity 95%
Rainfall 0.00 in
Snow Depth Not available.
UV 0 out of 12
Pollen 2.90 out of 12
Air Quality Not available.
Flu Activity Sporadic
METAR KDNS 250815Z AUTO 23005KT 6SM -RA SCT043 BKN065 OVC100 17/17 A2973 RMK AO2

More Conditions Fewer Conditions

Pressure 29.73 in
Visibility 6.0 miles
Clouds Scattered Clouds 4300 ft
Mostly Cloudy 6500 ft
Overcast 10000 ft
Dew Point 59 °F
Humidity 95%
Rainfall 0.00 in
Snow Depth Not available.
UV 0 out of 12
Pollen 2.90 out of 12
Air Quality Not available.
Flu Activity Sporadic
METAR KDNS 250815Z AUTO 23005KT 6SM -RA SCT043 BKN065 OVC100 17/17 A2973 RMK AO2

More Conditions Fewer Conditions

10-Day Weather Forecast

Almanac

Astronomy

May. 25, 2015 Rise Set
Actual Time
Civil Twilight
Nautical Twilight
Astronomical Twilight
Moon
Length of Visible Light
Length of Day
Tomorrow will be .
, % of the Moon is Illuminated

Today's Extremes

State Highs State Lows

Community

WunderPhotos

Upload Photos

1,823,959 photos uploaded!

WunderBlogs® & News

Nearby

Air Quality

  Air Quality AQ Index Pollutant
Not available.

Snow Depth

Station Depth Elevation

Earthquake Activity

City Distance Mag. Time & Date
Minimum magnitude displayed is 2.5.

Coastal Water Temperatures

Place Temperature

Stations

Nearby Weather Stations

Station Location Temp. Windchill Dew Point Humidity Wind Precip. Elev Updated Type